sensor_id;sensor_type;location;lat;lon;timestamp;P1;durP1;ratioP1;P2;durP2;ratioP2
21233;SDS011;10774;42.178;26.578;2023-03-13T00:00:48;5.47;;;2.80;;
21233;SDS011;10774;42.178;26.578;2023-03-13T00:03:14;7.60;;;2.92;;
21233;SDS011;10774;42.178;26.578;2023-03-13T00:05:39;4.28;;;2.60;;
21233;SDS011;10774;42.178;26.578;2023-03-13T00:08:04;5.05;;;2.42;;
21233;SDS011;10774;42.178;26.578;2023-03-13T00:10:30;5.45;;;2.40;;
21233;SDS011;10774;42.178;26.578;2023-03-13T00:12:55;4.38;;;2.88;;
21233;SDS011;10774;42.178;26.578;2023-03-13T00:15:20;11.73;;;4.05;;
21233;SDS011;10774;42.178;26.578;2023-03-13T00:17:46;9.75;;;4.20;;
21233;SDS011;10774;42.178;26.578;2023-03-13T00:20:11;8.50;;;4.63;;
21233;SDS011;10774;42.178;26.578;2023-03-13T00:22:37;10.85;;;4.65;;
21233;SDS011;10774;42.178;26.578;2023-03-13T00:25:02;12.15;;;6.10;;
21233;SDS011;10774;42.178;26.578;2023-03-13T00:27:31;13.80;;;6.50;;
21233;SDS011;10774;42.178;26.578;2023-03-13T00:29:57;14.45;;;7.32;;
21233;SDS011;10774;42.178;26.578;2023-03-13T00:32:22;13.20;;;7.30;;
21233;SDS011;10774;42.178;26.578;2023-03-13T00:34:48;7.70;;;4.93;;
21233;SDS011;10774;42.178;26.578;2023-03-13T00:37:13;8.43;;;4.75;;
21233;SDS011;10774;42.178;26.578;2023-03-13T00:39:39;12.63;;;5.45;;
21233;SDS011;10774;42.178;26.578;2023-03-13T00:42:04;7.47;;;4.60;;
21233;SDS011;10774;42.178;26.578;2023-03-13T00:44:30;9.85;;;5.03;;
21233;SDS011;10774;42.178;26.578;2023-03-13T00:46:56;6.22;;;4.13;;
21233;SDS011;10774;42.178;26.578;2023-03-13T00:49:21;7.47;;;3.88;;
21233;SDS011;10774;42.178;26.578;2023-03-13T00:51:46;5.80;;;2.90;;
21233;SDS011;10774;42.178;26.578;2023-03-13T00:54:12;4.35;;;3.17;;
21233;SDS011;10774;42.178;26.578;2023-03-13T00:56:37;4.25;;;3.05;;
21233;SDS011;10774;42.178;26.578;2023-03-13T00:59:03;5.60;;;3.72;;
21233;SDS011;10774;42.178;26.578;2023-03-13T01:01:32;6.55;;;3.78;;
21233;SDS011;10774;42.178;26.578;2023-03-13T01:04:00;4.28;;;3.17;;
21233;SDS011;10774;42.178;26.578;2023-03-13T01:06:28;6.93;;;3.88;;
21233;SDS011;10774;42.178;26.578;2023-03-13T01:08:55;5.18;;;3.88;;
21233;SDS011;10774;42.178;26.578;2023-03-13T01:11:22;16.85;;;6.88;;
21233;SDS011;10774;42.178;26.578;2023-03-13T01:13:52;12.52;;;6.90;;
21233;SDS011;10774;42.178;26.578;2023-03-13T01:16:41;9.60;;;5.43;;
21233;SDS011;10774;42.178;26.578;2023-03-13T01:19:10;9.10;;;5.00;;
21233;SDS011;10774;42.178;26.578;2023-03-13T01:21:38;8.70;;;4.15;;
21233;SDS011;10774;42.178;26.578;2023-03-13T01:24:03;15.35;;;11.07;;
21233;SDS011;10774;42.178;26.578;2023-03-13T01:26:30;28.88;;;19.13;;
21233;SDS011;10774;42.178;26.578;2023-03-13T01:28:55;24.33;;;15.60;;
21233;SDS011;10774;42.178;26.578;2023-03-13T01:31:22;12.77;;;8.73;;
21233;SDS011;10774;42.178;26.578;2023-03-13T01:33:54;9.38;;;6.53;;
21233;SDS011;10774;42.178;26.578;2023-03-13T01:36:22;8.90;;;5.88;;
21233;SDS011;10774;42.178;26.578;2023-03-13T01:38:49;11.13;;;5.93;;
21233;SDS011;10774;42.178;26.578;2023-03-13T01:41:15;7.47;;;5.82;;
21233;SDS011;10774;42.178;26.578;2023-03-13T01:43:42;8.68;;;5.65;;
21233;SDS011;10774;42.178;26.578;2023-03-13T01:56:53;5.68;;;3.40;;
21233;SDS011;10774;42.178;26.578;2023-03-13T01:59:25;4.33;;;2.67;;
21233;SDS011;10774;42.178;26.578;2023-03-13T02:01:55;6.88;;;3.33;;
21233;SDS011;10774;42.178;26.578;2023-03-13T02:04:23;6.57;;;3.40;;
21233;SDS011;10774;42.178;26.578;2023-03-13T02:06:51;6.85;;;3.10;;
21233;SDS011;10774;42.178;26.578;2023-03-13T02:09:21;7.45;;;3.72;;
21233;SDS011;10774;42.178;26.578;2023-03-13T02:14:32;13.38;;;7.70;;
21233;SDS011;10774;42.178;26.578;2023-03-13T02:17:01;11.88;;;7.10;;
21233;SDS011;10774;42.178;26.578;2023-03-13T02:24:50;13.00;;;3.87;;
21233;SDS011;10774;42.178;26.578;2023-03-13T02:27:21;6.18;;;3.28;;
21233;SDS011;10774;42.178;26.578;2023-03-13T02:29:46;5.35;;;3.30;;
21233;SDS011;10774;42.178;26.578;2023-03-13T02:32:13;8.52;;;3.47;;
21233;SDS011;10774;42.178;26.578;2023-03-13T02:34:39;7.47;;;3.67;;
21233;SDS011;10774;42.178;26.578;2023-03-13T02:37:07;14.80;;;7.28;;
21233;SDS011;10774;42.178;26.578;2023-03-13T02:39:35;5.38;;;3.45;;
21233;SDS011;10774;42.178;26.578;2023-03-13T02:42:03;5.95;;;4.50;;
21233;SDS011;10774;42.178;26.578;2023-03-13T02:44:29;9.05;;;4.70;;
21233;SDS011;10774;42.178;26.578;2023-03-13T02:46:55;6.20;;;4.03;;
21233;SDS011;10774;42.178;26.578;2023-03-13T02:49:25;6.13;;;4.53;;
21233;SDS011;10774;42.178;26.578;2023-03-13T02:51:53;7.35;;;4.90;;
21233;SDS011;10774;42.178;26.578;2023-03-13T02:54:31;8.85;;;5.70;;
21233;SDS011;10774;42.178;26.578;2023-03-13T02:57:00;7.65;;;3.97;;
21233;SDS011;10774;42.178;26.578;2023-03-13T02:59:28;8.75;;;3.65;;
21233;SDS011;10774;42.178;26.578;2023-03-13T03:01:53;5.97;;;3.63;;
21233;SDS011;10774;42.178;26.578;2023-03-13T03:04:20;5.60;;;3.88;;
21233;SDS011;10774;42.178;26.578;2023-03-13T03:06:46;6.18;;;3.78;;
21233;SDS011;10774;42.178;26.578;2023-03-13T03:09:12;6.47;;;4.20;;
21233;SDS011;10774;42.178;26.578;2023-03-13T03:11:38;7.75;;;5.35;;
21233;SDS011;10774;42.178;26.578;2023-03-13T03:14:04;7.93;;;4.65;;
21233;SDS011;10774;42.178;26.578;2023-03-13T03:16:29;9.63;;;4.72;;
21233;SDS011;10774;42.178;26.578;2023-03-13T03:18:55;8.00;;;3.53;;
21233;SDS011;10774;42.178;26.578;2023-03-13T03:21:20;9.77;;;3.90;;
21233;SDS011;10774;42.178;26.578;2023-03-13T03:23:47;8.90;;;3.88;;
21233;SDS011;10774;42.178;26.578;2023-03-13T03:26:14;9.88;;;3.35;;
21233;SDS011;10774;42.178;26.578;2023-03-13T03:28:40;9.15;;;3.97;;
21233;SDS011;10774;42.178;26.578;2023-03-13T03:31:06;7.25;;;3.83;;
21233;SDS011;10774;42.178;26.578;2023-03-13T03:33:33;8.73;;;4.50;;
21233;SDS011;10774;42.178;26.578;2023-03-13T03:36:02;6.38;;;4.97;;
21233;SDS011;10774;42.178;26.578;2023-03-13T03:38:31;6.68;;;3.97;;
21233;SDS011;10774;42.178;26.578;2023-03-13T03:40:57;12.02;;;5.47;;
21233;SDS011;10774;42.178;26.578;2023-03-13T03:43:23;10.60;;;5.95;;
21233;SDS011;10774;42.178;26.578;2023-03-13T03:45:48;9.30;;;5.18;;
21233;SDS011;10774;42.178;26.578;2023-03-13T03:48:14;8.88;;;6.43;;
21233;SDS011;10774;42.178;26.578;2023-03-13T03:50:39;12.15;;;6.88;;
21233;SDS011;10774;42.178;26.578;2023-03-13T03:53:05;9.50;;;6.63;;
21233;SDS011;10774;42.178;26.578;2023-03-13T03:55:30;9.45;;;4.82;;
21233;SDS011;10774;42.178;26.578;2023-03-13T03:57:55;8.98;;;4.65;;
21233;SDS011;10774;42.178;26.578;2023-03-13T04:00:21;4.57;;;3.45;;
21233;SDS011;10774;42.178;26.578;2023-03-13T04:02:46;10.07;;;4.35;;
21233;SDS011;10774;42.178;26.578;2023-03-13T04:05:12;11.73;;;4.90;;
21233;SDS011;10774;42.178;26.578;2023-03-13T04:07:37;12.30;;;8.02;;
21233;SDS011;10774;42.178;26.578;2023-03-13T04:10:03;12.55;;;8.10;;
21233;SDS011;10774;42.178;26.578;2023-03-13T04:12:29;13.00;;;6.95;;
21233;SDS011;10774;42.178;26.578;2023-03-13T04:14:54;13.13;;;7.53;;
21233;SDS011;10774;42.178;26.578;2023-03-13T04:17:20;16.27;;;9.38;;
21233;SDS011;10774;42.178;26.578;2023-03-13T04:19:45;13.55;;;8.90;;
21233;SDS011;10774;42.178;26.578;2023-03-13T04:22:10;11.93;;;7.85;;
21233;SDS011;10774;42.178;26.578;2023-03-13T04:24:36;13.38;;;8.55;;
21233;SDS011;10774;42.178;26.578;2023-03-13T04:27:01;15.00;;;10.65;;
21233;SDS011;10774;42.178;26.578;2023-03-13T04:29:30;31.77;;;20.70;;
21233;SDS011;10774;42.178;26.578;2023-03-13T04:31:56;62.72;;;41.90;;
21233;SDS011;10774;42.178;26.578;2023-03-13T04:34:21;64.72;;;46.05;;
21233;SDS011;10774;42.178;26.578;2023-03-13T04:36:47;51.38;;;38.53;;
21233;SDS011;10774;42.178;26.578;2023-03-13T04:39:12;39.63;;;32.33;;
21233;SDS011;10774;42.178;26.578;2023-03-13T04:41:38;34.15;;;28.20;;
21233;SDS011;10774;42.178;26.578;2023-03-13T04:44:03;23.27;;;20.05;;
21233;SDS011;10774;42.178;26.578;2023-03-13T04:46:29;20.83;;;16.38;;
21233;SDS011;10774;42.178;26.578;2023-03-13T04:48:54;20.98;;;16.13;;
21233;SDS011;10774;42.178;26.578;2023-03-13T04:51:19;29.40;;;22.23;;
21233;SDS011;10774;42.178;26.578;2023-03-13T04:53:45;40.85;;;29.95;;
21233;SDS011;10774;42.178;26.578;2023-03-13T04:56:11;39.30;;;26.73;;
21233;SDS011;10774;42.178;26.578;2023-03-13T04:58:45;17.63;;;12.98;;
21233;SDS011;10774;42.178;26.578;2023-03-13T05:01:11;14.95;;;11.00;;
21233;SDS011;10774;42.178;26.578;2023-03-13T05:03:36;13.25;;;8.70;;
21233;SDS011;10774;42.178;26.578;2023-03-13T05:06:02;23.90;;;11.90;;
21233;SDS011;10774;42.178;26.578;2023-03-13T05:08:27;15.80;;;9.25;;
21233;SDS011;10774;42.178;26.578;2023-03-13T05:10:52;23.80;;;15.95;;
21233;SDS011;10774;42.178;26.578;2023-03-13T05:13:18;19.10;;;14.10;;
21233;SDS011;10774;42.178;26.578;2023-03-13T05:15:43;13.45;;;9.15;;
21233;SDS011;10774;42.178;26.578;2023-03-13T05:18:09;22.13;;;9.55;;
21233;SDS011;10774;42.178;26.578;2023-03-13T05:20:34;10.98;;;8.50;;
21233;SDS011;10774;42.178;26.578;2023-03-13T05:22:59;14.73;;;10.02;;
21233;SDS011;10774;42.178;26.578;2023-03-13T05:25:25;20.55;;;14.20;;
21233;SDS011;10774;42.178;26.578;2023-03-13T05:27:50;16.77;;;11.68;;
21233;SDS011;10774;42.178;26.578;2023-03-13T05:30:16;14.43;;;9.98;;
21233;SDS011;10774;42.178;26.578;2023-03-13T05:32:41;20.80;;;13.15;;
21233;SDS011;10774;42.178;26.578;2023-03-13T05:35:06;12.75;;;9.45;;
21233;SDS011;10774;42.178;26.578;2023-03-13T05:37:32;10.10;;;7.30;;
21233;SDS011;10774;42.178;26.578;2023-03-13T05:39:58;11.30;;;8.93;;
21233;SDS011;10774;42.178;26.578;2023-03-13T05:42:23;11.90;;;7.70;;
21233;SDS011;10774;42.178;26.578;2023-03-13T05:44:50;10.65;;;7.70;;
21233;SDS011;10774;42.178;26.578;2023-03-13T05:47:16;12.57;;;7.63;;
21233;SDS011;10774;42.178;26.578;2023-03-13T05:49:42;11.30;;;7.53;;
21233;SDS011;10774;42.178;26.578;2023-03-13T05:52:08;12.45;;;7.35;;
21233;SDS011;10774;42.178;26.578;2023-03-13T05:54:33;17.08;;;7.78;;
21233;SDS011;10774;42.178;26.578;2023-03-13T05:56:59;15.07;;;8.23;;
21233;SDS011;10774;42.178;26.578;2023-03-13T05:59:24;11.80;;;8.10;;
21233;SDS011;10774;42.178;26.578;2023-03-13T06:01:50;10.75;;;6.32;;
21233;SDS011;10774;42.178;26.578;2023-03-13T06:04:17;9.05;;;6.80;;
21233;SDS011;10774;42.178;26.578;2023-03-13T06:06:43;10.43;;;5.93;;
21233;SDS011;10774;42.178;26.578;2023-03-13T06:09:08;8.30;;;5.60;;
21233;SDS011;10774;42.178;26.578;2023-03-13T06:11:35;16.05;;;6.70;;
21233;SDS011;10774;42.178;26.578;2023-03-13T06:14:01;11.40;;;6.55;;
21233;SDS011;10774;42.178;26.578;2023-03-13T06:16:26;7.13;;;4.90;;
21233;SDS011;10774;42.178;26.578;2023-03-13T06:18:52;9.13;;;5.22;;
21233;SDS011;10774;42.178;26.578;2023-03-13T06:21:17;10.77;;;6.40;;
21233;SDS011;10774;42.178;26.578;2023-03-13T06:23:43;8.60;;;5.55;;
21233;SDS011;10774;42.178;26.578;2023-03-13T06:26:08;13.25;;;7.38;;
21233;SDS011;10774;42.178;26.578;2023-03-13T06:28:34;11.02;;;7.20;;
21233;SDS011;10774;42.178;26.578;2023-03-13T06:31:00;9.10;;;6.20;;
21233;SDS011;10774;42.178;26.578;2023-03-13T06:33:30;11.23;;;5.88;;
21233;SDS011;10774;42.178;26.578;2023-03-13T06:35:55;12.32;;;6.68;;
21233;SDS011;10774;42.178;26.578;2023-03-13T06:38:22;8.15;;;5.30;;
21233;SDS011;10774;42.178;26.578;2023-03-13T06:40:48;6.68;;;5.55;;
21233;SDS011;10774;42.178;26.578;2023-03-13T06:43:14;8.68;;;5.50;;
21233;SDS011;10774;42.178;26.578;2023-03-13T06:45:39;8.75;;;5.80;;
21233;SDS011;10774;42.178;26.578;2023-03-13T06:48:04;13.73;;;5.28;;
21233;SDS011;10774;42.178;26.578;2023-03-13T06:50:30;10.52;;;5.53;;
21233;SDS011;10774;42.178;26.578;2023-03-13T06:52:55;7.65;;;5.00;;
21233;SDS011;10774;42.178;26.578;2023-03-13T06:55:22;7.15;;;4.95;;
21233;SDS011;10774;42.178;26.578;2023-03-13T06:57:51;8.10;;;4.82;;
21233;SDS011;10774;42.178;26.578;2023-03-13T07:00:17;8.00;;;6.25;;
21233;SDS011;10774;42.178;26.578;2023-03-13T07:02:43;10.32;;;5.10;;
21233;SDS011;10774;42.178;26.578;2023-03-13T07:05:09;5.60;;;4.22;;
21233;SDS011;10774;42.178;26.578;2023-03-13T07:07:34;6.05;;;4.80;;
21233;SDS011;10774;42.178;26.578;2023-03-13T07:10:00;13.13;;;5.13;;
21233;SDS011;10774;42.178;26.578;2023-03-13T07:12:26;7.07;;;4.80;;
21233;SDS011;10774;42.178;26.578;2023-03-13T07:14:51;5.43;;;4.65;;
21233;SDS011;10774;42.178;26.578;2023-03-13T07:17:17;9.13;;;4.72;;
21233;SDS011;10774;42.178;26.578;2023-03-13T07:19:42;12.75;;;5.10;;
21233;SDS011;10774;42.178;26.578;2023-03-13T07:22:07;7.13;;;4.70;;
21233;SDS011;10774;42.178;26.578;2023-03-13T07:24:33;7.13;;;4.90;;
21233;SDS011;10774;42.178;26.578;2023-03-13T07:26:58;8.20;;;4.28;;
21233;SDS011;10774;42.178;26.578;2023-03-13T07:29:24;5.45;;;4.53;;
21233;SDS011;10774;42.178;26.578;2023-03-13T07:31:49;8.88;;;4.40;;
21233;SDS011;10774;42.178;26.578;2023-03-13T07:34:15;5.70;;;3.72;;
21233;SDS011;10774;42.178;26.578;2023-03-13T07:36:40;11.48;;;4.38;;
21233;SDS011;10774;42.178;26.578;2023-03-13T07:39:06;9.68;;;5.28;;
21233;SDS011;10774;42.178;26.578;2023-03-13T07:41:32;7.53;;;4.10;;
21233;SDS011;10774;42.178;26.578;2023-03-13T07:43:58;4.25;;;3.20;;
21233;SDS011;10774;42.178;26.578;2023-03-13T07:46:23;7.05;;;3.30;;
21233;SDS011;10774;42.178;26.578;2023-03-13T07:48:49;6.38;;;3.25;;
21233;SDS011;10774;42.178;26.578;2023-03-13T07:51:20;5.38;;;3.50;;
21233;SDS011;10774;42.178;26.578;2023-03-13T07:53:47;7.65;;;6.82;;
21233;SDS011;10774;42.178;26.578;2023-03-13T07:56:20;20.00;;;12.90;;
21233;SDS011;10774;42.178;26.578;2023-03-13T07:58:46;27.70;;;14.02;;
21233;SDS011;10774;42.178;26.578;2023-03-13T08:01:25;16.77;;;9.75;;
21233;SDS011;10774;42.178;26.578;2023-03-13T08:03:51;79.30;;;45.55;;
21233;SDS011;10774;42.178;26.578;2023-03-13T08:06:22;27.98;;;18.73;;
21233;SDS011;10774;42.178;26.578;2023-03-13T08:08:50;53.75;;;27.02;;
21233;SDS011;10774;42.178;26.578;2023-03-13T08:11:18;39.28;;;23.75;;
21233;SDS011;10774;42.178;26.578;2023-03-13T08:13:46;32.33;;;20.30;;
21233;SDS011;10774;42.178;26.578;2023-03-13T08:18:44;26.58;;;12.35;;
21233;SDS011;10774;42.178;26.578;2023-03-13T08:21:15;7.82;;;4.07;;
21233;SDS011;10774;42.178;26.578;2023-03-13T08:23:43;13.20;;;6.95;;
21233;SDS011;10774;42.178;26.578;2023-03-13T08:26:10;33.17;;;16.45;;
21233;SDS011;10774;42.178;26.578;2023-03-13T08:28:37;24.48;;;10.70;;
21233;SDS011;10774;42.178;26.578;2023-03-13T08:31:10;13.02;;;5.72;;
21233;SDS011;10774;42.178;26.578;2023-03-13T08:33:36;16.02;;;9.48;;
21233;SDS011;10774;42.178;26.578;2023-03-13T08:38:39;7.32;;;4.53;;
21233;SDS011;10774;42.178;26.578;2023-03-13T08:41:11;9.93;;;5.40;;
21233;SDS011;10774;42.178;26.578;2023-03-13T08:43:58;4.85;;;3.70;;
21233;SDS011;10774;42.178;26.578;2023-03-13T08:46:24;4.70;;;4.05;;
21233;SDS011;10774;42.178;26.578;2023-03-13T08:48:50;8.57;;;4.72;;
21233;SDS011;10774;42.178;26.578;2023-03-13T08:51:17;5.15;;;3.00;;
21233;SDS011;10774;42.178;26.578;2023-03-13T08:53:44;5.28;;;3.90;;
21233;SDS011;10774;42.178;26.578;2023-03-13T08:56:11;4.85;;;2.67;;
21233;SDS011;10774;42.178;26.578;2023-03-13T08:58:38;6.00;;;2.33;;
21233;SDS011;10774;42.178;26.578;2023-03-13T09:01:05;4.75;;;3.10;;
21233;SDS011;10774;42.178;26.578;2023-03-13T09:03:32;5.32;;;3.15;;
21233;SDS011;10774;42.178;26.578;2023-03-13T09:05:58;6.55;;;2.35;;
21233;SDS011;10774;42.178;26.578;2023-03-13T09:08:24;6.38;;;2.95;;
21233;SDS011;10774;42.178;26.578;2023-03-13T09:10:54;5.95;;;3.13;;
21233;SDS011;10774;42.178;26.578;2023-03-13T09:13:21;3.75;;;2.20;;
21233;SDS011;10774;42.178;26.578;2023-03-13T09:15:52;4.63;;;2.80;;
21233;SDS011;10774;42.178;26.578;2023-03-13T09:18:25;5.38;;;3.50;;
21233;SDS011;10774;42.178;26.578;2023-03-13T09:20:51;9.02;;;4.53;;
21233;SDS011;10774;42.178;26.578;2023-03-13T09:23:17;4.75;;;3.13;;
21233;SDS011;10774;42.178;26.578;2023-03-13T09:25:43;5.63;;;3.33;;
21233;SDS011;10774;42.178;26.578;2023-03-13T09:28:08;5.40;;;3.47;;
21233;SDS011;10774;42.178;26.578;2023-03-13T09:30:34;6.10;;;2.92;;
21233;SDS011;10774;42.178;26.578;2023-03-13T09:32:59;11.85;;;4.70;;
21233;SDS011;10774;42.178;26.578;2023-03-13T09:35:25;8.60;;;5.05;;
21233;SDS011;10774;42.178;26.578;2023-03-13T09:37:50;3.70;;;2.90;;
21233;SDS011;10774;42.178;26.578;2023-03-13T09:40:16;3.35;;;2.38;;
21233;SDS011;10774;42.178;26.578;2023-03-13T09:43:18;7.63;;;2.95;;
21233;SDS011;10774;42.178;26.578;2023-03-13T09:45:50;4.07;;;2.80;;
21233;SDS011;10774;42.178;26.578;2023-03-13T09:48:31;5.63;;;3.50;;
21233;SDS011;10774;42.178;26.578;2023-03-13T09:51:22;5.47;;;2.85;;
21233;SDS011;10774;42.178;26.578;2023-03-13T09:56:39;6.82;;;3.30;;
21233;SDS011;10774;42.178;26.578;2023-03-13T09:59:17;2.50;;;1.85;;
21233;SDS011;10774;42.178;26.578;2023-03-13T10:01:46;5.57;;;2.05;;
21233;SDS011;10774;42.178;26.578;2023-03-13T10:07:13;3.33;;;2.00;;
21233;SDS011;10774;42.178;26.578;2023-03-13T10:09:38;5.85;;;2.45;;
21233;SDS011;10774;42.178;26.578;2023-03-13T10:12:19;4.50;;;3.05;;
21233;SDS011;10774;42.178;26.578;2023-03-13T10:17:41;6.75;;;2.90;;
21233;SDS011;10774;42.178;26.578;2023-03-13T10:20:12;4.75;;;2.17;;
21233;SDS011;10774;42.178;26.578;2023-03-13T10:22:39;4.55;;;2.30;;
21233;SDS011;10774;42.178;26.578;2023-03-13T10:25:10;5.55;;;2.90;;
21233;SDS011;10774;42.178;26.578;2023-03-13T10:27:51;8.30;;;4.85;;
21233;SDS011;10774;42.178;26.578;2023-03-13T10:30:29;7.93;;;3.10;;
21233;SDS011;10774;42.178;26.578;2023-03-13T10:32:59;5.40;;;3.55;;
21233;SDS011;10774;42.178;26.578;2023-03-13T10:35:42;5.20;;;3.55;;
21233;SDS011;10774;42.178;26.578;2023-03-13T10:38:12;9.02;;;5.72;;
21233;SDS011;10774;42.178;26.578;2023-03-13T10:40:41;4.43;;;3.10;;
21233;SDS011;10774;42.178;26.578;2023-03-13T10:43:17;4.82;;;2.08;;
21233;SDS011;10774;42.178;26.578;2023-03-13T10:45:45;8.55;;;4.00;;
21233;SDS011;10774;42.178;26.578;2023-03-13T10:48:14;2.75;;;1.70;;
21233;SDS011;10774;42.178;26.578;2023-03-13T10:50:48;2.58;;;1.30;;
21233;SDS011;10774;42.178;26.578;2023-03-13T10:53:23;2.97;;;1.60;;
21233;SDS011;10774;42.178;26.578;2023-03-13T10:55:57;10.82;;;4.80;;
21233;SDS011;10774;42.178;26.578;2023-03-13T10:58:34;4.68;;;2.00;;
21233;SDS011;10774;42.178;26.578;2023-03-13T11:03:43;20.13;;;10.60;;
21233;SDS011;10774;42.178;26.578;2023-03-13T11:09:09;5.38;;;2.75;;
21233;SDS011;10774;42.178;26.578;2023-03-13T11:11:51;11.55;;;4.10;;
21233;SDS011;10774;42.178;26.578;2023-03-13T11:14:25;7.13;;;2.85;;
21233;SDS011;10774;42.178;26.578;2023-03-13T11:23:23;5.25;;;2.20;;
21233;SDS011;10774;42.178;26.578;2023-03-13T11:28:19;2.53;;;1.90;;
21233;SDS011;10774;42.178;26.578;2023-03-13T11:31:27;5.68;;;3.00;;
21233;SDS011;10774;42.178;26.578;2023-03-13T11:36:39;4.30;;;2.70;;
21233;SDS011;10774;42.178;26.578;2023-03-13T11:55:15;7.38;;;4.53;;
21233;SDS011;10774;42.178;26.578;2023-03-13T11:57:53;3.33;;;2.47;;
21233;SDS011;10774;42.178;26.578;2023-03-13T12:00:39;4.68;;;2.20;;
21233;SDS011;10774;42.178;26.578;2023-03-13T12:03:15;3.78;;;2.40;;
21233;SDS011;10774;42.178;26.578;2023-03-13T12:05:48;3.33;;;2.50;;
21233;SDS011;10774;42.178;26.578;2023-03-13T12:11:05;9.40;;;4.07;;
21233;SDS011;10774;42.178;26.578;2023-03-13T12:13:58;11.20;;;5.30;;
21233;SDS011;10774;42.178;26.578;2023-03-13T12:17:00;3.80;;;1.80;;
21233;SDS011;10774;42.178;26.578;2023-03-13T12:19:41;7.05;;;2.55;;
21233;SDS011;10774;42.178;26.578;2023-03-13T12:25:42;4.18;;;2.67;;
21233;SDS011;10774;42.178;26.578;2023-03-13T12:33:42;5.50;;;3.10;;
21233;SDS011;10774;42.178;26.578;2023-03-13T12:38:44;8.85;;;5.13;;
21233;SDS011;10774;42.178;26.578;2023-03-13T12:41:32;7.47;;;4.97;;
21233;SDS011;10774;42.178;26.578;2023-03-13T12:44:11;9.68;;;4.20;;
21233;SDS011;10774;42.178;26.578;2023-03-13T12:46:45;3.10;;;1.95;;
21233;SDS011;10774;42.178;26.578;2023-03-13T12:57:50;7.15;;;4.72;;
21233;SDS011;10774;42.178;26.578;2023-03-13T13:00:40;12.52;;;5.60;;
21233;SDS011;10774;42.178;26.578;2023-03-13T13:05:56;14.80;;;6.95;;
21233;SDS011;10774;42.178;26.578;2023-03-13T13:09:00;15.82;;;7.30;;
21233;SDS011;10774;42.178;26.578;2023-03-13T13:16:53;7.43;;;4.00;;
21233;SDS011;10774;42.178;26.578;2023-03-13T13:29:56;8.13;;;4.05;;
21233;SDS011;10774;42.178;26.578;2023-03-13T13:34:59;32.72;;;15.40;;
21233;SDS011;10774;42.178;26.578;2023-03-13T13:37:33;8.23;;;5.78;;
21233;SDS011;10774;42.178;26.578;2023-03-13T13:42:58;3.85;;;2.97;;
21233;SDS011;10774;42.178;26.578;2023-03-13T13:45:30;4.10;;;2.80;;
21233;SDS011;10774;42.178;26.578;2023-03-13T13:48:22;4.63;;;3.10;;
21233;SDS011;10774;42.178;26.578;2023-03-13T13:59:02;7.70;;;3.35;;
21233;SDS011;10774;42.178;26.578;2023-03-13T14:12:53;8.77;;;4.80;;
21233;SDS011;10774;42.178;26.578;2023-03-13T14:15:29;11.27;;;7.53;;
21233;SDS011;10774;42.178;26.578;2023-03-13T14:17:58;6.97;;;4.20;;
21233;SDS011;10774;42.178;26.578;2023-03-13T14:20:33;10.00;;;6.40;;
21233;SDS011;10774;42.178;26.578;2023-03-13T14:23:03;11.80;;;6.45;;
21233;SDS011;10774;42.178;26.578;2023-03-13T14:28:32;8.73;;;5.25;;
21233;SDS011;10774;42.178;26.578;2023-03-13T14:30:58;10.60;;;5.18;;
21233;SDS011;10774;42.178;26.578;2023-03-13T14:33:24;7.50;;;5.20;;
21233;SDS011;10774;42.178;26.578;2023-03-13T14:35:53;9.93;;;4.47;;
21233;SDS011;10774;42.178;26.578;2023-03-13T14:38:22;3.90;;;2.75;;
21233;SDS011;10774;42.178;26.578;2023-03-13T14:40:51;6.93;;;4.60;;
21233;SDS011;10774;42.178;26.578;2023-03-13T14:43:20;5.88;;;4.70;;
21233;SDS011;10774;42.178;26.578;2023-03-13T14:45:52;7.72;;;5.68;;
21233;SDS011;10774;42.178;26.578;2023-03-13T14:50:45;6.32;;;3.90;;
21233;SDS011;10774;42.178;26.578;2023-03-13T14:53:21;6.97;;;3.22;;
21233;SDS011;10774;42.178;26.578;2023-03-13T15:00:45;14.73;;;6.88;;
21233;SDS011;10774;42.178;26.578;2023-03-13T15:05:44;23.63;;;14.23;;
21233;SDS011;10774;42.178;26.578;2023-03-13T15:08:17;6.35;;;4.05;;
21233;SDS011;10774;42.178;26.578;2023-03-13T15:10:45;5.47;;;2.50;;
21233;SDS011;10774;42.178;26.578;2023-03-13T15:15:45;11.48;;;6.20;;
21233;SDS011;10774;42.178;26.578;2023-03-13T15:18:19;7.50;;;4.82;;
21233;SDS011;10774;42.178;26.578;2023-03-13T15:20:49;11.80;;;7.68;;
21233;SDS011;10774;42.178;26.578;2023-03-13T15:23:16;10.40;;;7.05;;
21233;SDS011;10774;42.178;26.578;2023-03-13T15:25:43;16.23;;;8.73;;
21233;SDS011;10774;42.178;26.578;2023-03-13T15:28:15;10.70;;;6.10;;
21233;SDS011;10774;42.178;26.578;2023-03-13T15:30:43;5.55;;;3.80;;
21233;SDS011;10774;42.178;26.578;2023-03-13T15:33:13;10.88;;;5.32;;
21233;SDS011;10774;42.178;26.578;2023-03-13T15:35:42;13.70;;;8.82;;
21233;SDS011;10774;42.178;26.578;2023-03-13T15:38:12;17.45;;;10.00;;
21233;SDS011;10774;42.178;26.578;2023-03-13T15:40:42;18.83;;;12.32;;
21233;SDS011;10774;42.178;26.578;2023-03-13T15:43:09;12.18;;;9.30;;
21233;SDS011;10774;42.178;26.578;2023-03-13T15:45:35;31.05;;;21.30;;
21233;SDS011;10774;42.178;26.578;2023-03-13T15:48:02;12.18;;;9.18;;
21233;SDS011;10774;42.178;26.578;2023-03-13T15:50:36;22.30;;;14.77;;
21233;SDS011;10774;42.178;26.578;2023-03-13T15:53:01;15.98;;;13.00;;
21233;SDS011;10774;42.178;26.578;2023-03-13T15:55:28;19.00;;;14.93;;
21233;SDS011;10774;42.178;26.578;2023-03-13T15:57:53;29.77;;;22.42;;
21233;SDS011;10774;42.178;26.578;2023-03-13T16:00:20;21.65;;;15.20;;
21233;SDS011;10774;42.178;26.578;2023-03-13T16:02:48;22.52;;;15.77;;
21233;SDS011;10774;42.178;26.578;2023-03-13T16:05:13;25.77;;;17.35;;
21233;SDS011;10774;42.178;26.578;2023-03-13T16:07:39;24.23;;;15.38;;
21233;SDS011;10774;42.178;26.578;2023-03-13T16:10:06;33.85;;;24.58;;
21233;SDS011;10774;42.178;26.578;2023-03-13T16:12:39;27.10;;;20.33;;
21233;SDS011;10774;42.178;26.578;2023-03-13T16:15:05;25.40;;;18.38;;
21233;SDS011;10774;42.178;26.578;2023-03-13T16:17:30;13.50;;;10.82;;
21233;SDS011;10774;42.178;26.578;2023-03-13T16:19:56;16.02;;;9.65;;
21233;SDS011;10774;42.178;26.578;2023-03-13T16:22:21;14.65;;;11.90;;
21233;SDS011;10774;42.178;26.578;2023-03-13T16:24:47;14.55;;;10.35;;
21233;SDS011;10774;42.178;26.578;2023-03-13T16:27:15;21.52;;;13.25;;
21233;SDS011;10774;42.178;26.578;2023-03-13T16:29:42;19.15;;;12.85;;
21233;SDS011;10774;42.178;26.578;2023-03-13T16:32:10;22.63;;;14.15;;
21233;SDS011;10774;42.178;26.578;2023-03-13T16:34:37;38.60;;;25.25;;
21233;SDS011;10774;42.178;26.578;2023-03-13T16:37:09;24.35;;;12.85;;
21233;SDS011;10774;42.178;26.578;2023-03-13T16:39:36;25.15;;;14.20;;
21233;SDS011;10774;42.178;26.578;2023-03-13T16:42:01;34.33;;;18.10;;
21233;SDS011;10774;42.178;26.578;2023-03-13T16:44:26;24.77;;;15.00;;
21233;SDS011;10774;42.178;26.578;2023-03-13T16:46:52;16.90;;;11.02;;
21233;SDS011;10774;42.178;26.578;2023-03-13T16:49:17;23.63;;;17.17;;
21233;SDS011;10774;42.178;26.578;2023-03-13T16:51:43;54.38;;;35.80;;
21233;SDS011;10774;42.178;26.578;2023-03-13T16:54:08;34.15;;;23.38;;
21233;SDS011;10774;42.178;26.578;2023-03-13T16:56:37;20.77;;;13.90;;
21233;SDS011;10774;42.178;26.578;2023-03-13T16:59:04;26.73;;;14.88;;
21233;SDS011;10774;42.178;26.578;2023-03-13T17:01:34;24.65;;;16.42;;